createdAt,value
2019-01-14T00:01:05.475Z,5.50
2019-01-14T00:03:34.622Z,5.30
2019-01-14T00:06:10.098Z,5.10
2019-01-14T00:08:35.636Z,4.90
2019-01-14T00:11:05.142Z,4.70
2019-01-14T00:13:34.299Z,4.60
2019-01-14T00:16:03.582Z,4.50
2019-01-14T00:18:33.042Z,4.40
2019-01-14T00:21:02.823Z,4.40
2019-01-14T00:23:32.268Z,4.40
2019-01-14T00:26:01.699Z,4.40
2019-01-14T00:28:31.416Z,4.30
2019-01-14T00:31:01.575Z,4.30
2019-01-14T00:33:31.306Z,4.20
2019-01-14T00:36:00.957Z,4.20
2019-01-14T00:38:31.761Z,4.30
2019-01-14T00:41:01.338Z,4.20
2019-01-14T00:43:30.718Z,4.20
2019-01-14T00:46:00.410Z,4.20
2019-01-14T00:48:29.515Z,4.20
2019-01-14T00:50:58.655Z,4.20
2019-01-14T00:53:28.030Z,4.20
2019-01-14T00:55:57.179Z,4.20
2019-01-14T00:58:26.550Z,4.10
2019-01-14T01:00:55.706Z,4.10
2019-01-14T01:03:25.343Z,4.10
2019-01-14T01:05:54.787Z,4.10
2019-01-14T01:08:24.351Z,4.10
2019-01-14T01:10:53.835Z,4.10
2019-01-14T01:13:22.991Z,4.00
2019-01-14T01:15:52.108Z,4.10
2019-01-14T01:18:21.634Z,4.00
2019-01-14T01:20:51.479Z,4.10
2019-01-14T01:23:21.648Z,4.10
2019-01-14T01:25:50.799Z,4.10
2019-01-14T01:28:19.911Z,4.10
2019-01-14T01:30:49.344Z,4.10
2019-01-14T01:33:19.174Z,4.20
2019-01-14T01:35:48.911Z,4.20
2019-01-14T01:38:18.329Z,4.20
2019-01-14T01:40:47.702Z,4.20
2019-01-14T01:43:17.386Z,4.20
2019-01-14T01:45:46.495Z,4.20
2019-01-14T01:48:15.879Z,4.20
2019-01-14T01:50:45.349Z,4.20
2019-01-14T01:53:14.762Z,4.20
2019-01-14T01:55:43.923Z,4.20
2019-01-14T01:58:13.032Z,4.30
2019-01-14T02:00:42.142Z,4.30
2019-01-14T02:03:11.291Z,4.40
2019-01-14T02:05:40.715Z,4.40
2019-01-14T02:08:10.107Z,4.40
2019-01-14T02:10:39.267Z,4.30
2019-01-14T02:13:08.645Z,4.40
2019-01-14T02:15:37.809Z,4.40
2019-01-14T02:18:06.919Z,4.30
2019-01-14T02:20:36.339Z,4.30
2019-01-14T02:23:05.502Z,4.30
2019-01-14T02:25:34.880Z,4.30
2019-01-14T02:28:04.094Z,4.30
2019-01-14T02:30:33.190Z,4.20
2019-01-14T02:33:02.579Z,4.20
2019-01-14T02:35:32.599Z,4.20
2019-01-14T02:38:02.087Z,4.20
2019-01-14T02:40:31.197Z,4.10
2019-01-14T02:43:00.432Z,4.20
2019-01-14T02:45:29.855Z,4.10
2019-01-14T02:47:59.248Z,4.20
2019-01-14T02:50:28.357Z,4.30
2019-01-14T02:52:57.768Z,4.30
2019-01-14T02:55:27.211Z,4.20
2019-01-14T02:57:57.315Z,4.20
2019-01-14T03:00:27.624Z,4.30
2019-01-14T03:02:56.783Z,4.30
2019-01-14T03:05:26.252Z,4.40
2019-01-14T03:07:55.880Z,4.40
2019-01-14T03:10:25.018Z,4.40
2019-01-14T03:12:54.394Z,4.40
2019-01-14T03:15:23.879Z,4.40
2019-01-14T03:17:53.253Z,4.40
2019-01-14T03:20:22.687Z,4.40
2019-01-14T03:22:52.119Z,4.40
2019-01-14T03:25:21.244Z,4.40
2019-01-14T03:27:50.350Z,4.40
2019-01-14T03:30:20.727Z,4.40
2019-01-14T03:32:49.942Z,4.30
2019-01-14T03:35:19.518Z,4.30
2019-01-14T03:37:48.616Z,4.30
2019-01-14T03:40:18.240Z,4.30
2019-01-14T03:42:47.534Z,4.30
2019-01-14T03:45:16.895Z,4.30
2019-01-14T03:47:46.300Z,4.30
2019-01-14T03:50:23.169Z,4.30
2019-01-14T03:52:52.581Z,4.30
2019-01-14T03:55:21.730Z,4.30
2019-01-14T03:57:52.604Z,4.30
2019-01-14T04:00:21.779Z,4.30
2019-01-14T04:02:51.517Z,4.30
2019-01-14T04:05:21.644Z,4.40
2019-01-14T04:07:50.754Z,4.30
2019-01-14T04:10:19.906Z,4.30
2019-01-14T04:12:49.322Z,4.30
2019-01-14T04:15:20.628Z,4.30
2019-01-14T04:17:50.031Z,4.30
2019-01-14T04:20:19.744Z,4.20
2019-01-14T04:22:49.115Z,4.30
2019-01-14T04:25:18.219Z,4.20
2019-01-14T04:27:47.367Z,4.10
2019-01-14T04:30:21.887Z,4.20
2019-01-14T04:32:51.490Z,4.10
2019-01-14T04:35:21.634Z,4.10
2019-01-14T04:37:51.044Z,4.10
2019-01-14T04:40:20.491Z,4.10
2019-01-14T04:42:49.617Z,4.00
2019-01-14T04:45:19.234Z,4.00
2019-01-14T04:47:48.990Z,4.00
2019-01-14T04:50:20.428Z,3.90
2019-01-14T04:52:49.534Z,4.00
2019-01-14T04:55:18.774Z,3.90
2019-01-14T04:57:47.891Z,3.90
2019-01-14T05:00:19.902Z,3.90
2019-01-14T05:02:49.071Z,3.90
2019-01-14T05:05:18.306Z,3.90
2019-01-14T05:07:47.667Z,3.90
2019-01-14T05:10:17.684Z,3.90
2019-01-14T05:12:46.891Z,3.90
2019-01-14T05:15:16.040Z,3.90
2019-01-14T05:17:45.512Z,3.90
2019-01-14T05:20:22.510Z,3.90
2019-01-14T05:22:51.640Z,3.90
2019-01-14T05:25:20.819Z,3.90
2019-01-14T05:27:49.915Z,4.00
2019-01-14T05:30:19.310Z,4.00
2019-01-14T05:32:48.904Z,4.00
2019-01-14T05:35:18.076Z,4.00
2019-01-14T05:37:47.320Z,4.00
2019-01-14T05:40:18.783Z,4.00
2019-01-14T05:42:48.004Z,4.00
2019-01-14T05:45:17.383Z,4.10
2019-01-14T05:47:46.563Z,4.10
2019-01-14T05:50:16.038Z,4.10
2019-01-14T05:52:45.872Z,4.10
2019-01-14T05:55:15.386Z,4.00
2019-01-14T05:57:44.506Z,4.00
2019-01-14T06:00:22.893Z,4.00
2019-01-14T06:02:52.099Z,4.00
2019-01-14T06:05:21.238Z,4.00
2019-01-14T06:07:50.890Z,4.10
2019-01-14T06:10:20.540Z,4.00
2019-01-14T06:12:49.970Z,4.00
2019-01-14T06:15:19.988Z,4.00
2019-01-14T06:17:49.127Z,3.90
2019-01-14T06:20:19.638Z,3.90
2019-01-14T06:22:49.045Z,3.90
2019-01-14T06:25:18.349Z,3.90
2019-01-14T06:27:47.842Z,4.00
2019-01-14T06:30:19.113Z,4.00
2019-01-14T06:32:48.227Z,4.00
2019-01-14T06:35:17.971Z,4.00
2019-01-14T06:37:52.243Z,3.90
2019-01-14T06:40:22.306Z,3.90
2019-01-14T06:42:51.677Z,3.90
2019-01-14T06:45:21.252Z,3.80
2019-01-14T06:47:50.559Z,3.80
2019-01-14T06:50:20.270Z,3.70
2019-01-14T06:52:49.718Z,3.70
2019-01-14T06:55:19.303Z,3.70
2019-01-14T06:57:48.415Z,3.60
2019-01-14T07:00:23.433Z,3.60
2019-01-14T07:02:53.171Z,3.50
2019-01-14T07:05:22.523Z,3.50
2019-01-14T07:07:51.710Z,3.50
2019-01-14T07:10:26.280Z,3.50
2019-01-14T07:12:55.737Z,3.50
2019-01-14T07:15:25.743Z,3.50
2019-01-14T07:17:54.843Z,3.50
2019-01-14T07:20:23.978Z,3.50
2019-01-14T07:22:53.351Z,3.60
2019-01-14T07:25:22.761Z,3.60
2019-01-14T07:27:52.178Z,3.60
2019-01-14T07:30:21.911Z,3.60
2019-01-14T07:32:51.387Z,3.60
2019-01-14T07:35:20.494Z,3.50
2019-01-14T07:37:49.991Z,3.50
2019-01-14T07:40:19.914Z,3.50
2019-01-14T07:42:49.021Z,3.50
2019-01-14T07:45:19.058Z,3.50
2019-01-14T07:47:48.488Z,3.50
2019-01-14T07:50:18.682Z,3.50
2019-01-14T07:52:47.937Z,3.50
2019-01-14T07:55:17.134Z,3.50
2019-01-14T07:57:46.313Z,3.50
2019-01-14T08:00:21.146Z,3.50
2019-01-14T08:02:50.331Z,3.50
2019-01-14T08:05:19.739Z,3.50
2019-01-14T08:07:49.210Z,3.60
2019-01-14T08:10:18.626Z,3.60
2019-01-14T08:12:47.778Z,3.60
2019-01-14T08:15:19.009Z,3.60
2019-01-14T08:17:48.218Z,3.70
2019-01-14T08:20:17.868Z,3.70
2019-01-14T08:22:47.370Z,3.70
2019-01-14T08:25:17.054Z,3.70
2019-01-14T08:27:46.558Z,3.70
2019-01-14T08:30:18.342Z,3.80
2019-01-14T08:32:47.510Z,3.80
2019-01-14T08:35:17.235Z,3.80
2019-01-14T08:37:46.330Z,3.90
2019-01-14T08:40:16.332Z,3.90
2019-01-14T08:42:45.770Z,4.00
2019-01-14T08:45:15.145Z,4.00
2019-01-14T08:47:44.364Z,4.20
2019-01-14T08:50:18.634Z,4.20
2019-01-14T08:52:48.010Z,4.30
2019-01-14T08:55:17.214Z,4.30
2019-01-14T08:57:46.326Z,4.40
2019-01-14T09:00:18.008Z,4.40
2019-01-14T09:02:47.210Z,4.50
2019-01-14T09:05:16.514Z,4.60
2019-01-14T09:07:45.666Z,4.60
2019-01-14T09:10:17.897Z,4.60
2019-01-14T09:12:47.875Z,4.70
2019-01-14T09:15:17.516Z,4.70
2019-01-14T09:17:47.130Z,4.80
2019-01-14T09:20:18.143Z,4.80
2019-01-14T09:22:47.512Z,4.80
2019-01-14T09:25:16.893Z,4.80
2019-01-14T09:27:46.419Z,4.80
2019-01-14T09:30:23.800Z,4.80
2019-01-14T09:32:53.034Z,4.70
2019-01-14T09:35:22.443Z,4.70
2019-01-14T09:37:51.543Z,4.70
2019-01-14T09:40:22.304Z,4.70
2019-01-14T09:42:51.435Z,4.70
2019-01-14T09:45:20.900Z,4.60
2019-01-14T09:47:50.288Z,4.70
2019-01-14T09:50:19.527Z,4.60
2019-01-14T09:52:49.202Z,4.70
2019-01-14T09:55:19.614Z,4.80
2019-01-14T09:57:49.059Z,4.70
2019-01-14T10:00:18.765Z,4.70
2019-01-14T10:02:48.254Z,4.70
2019-01-14T10:05:18.835Z,4.70
2019-01-14T10:07:48.330Z,4.80
2019-01-14T10:10:18.431Z,4.80
2019-01-14T10:12:47.920Z,4.70
2019-01-14T10:15:21.759Z,4.70
2019-01-14T10:17:55.836Z,4.80
2019-01-14T10:20:25.011Z,4.70
2019-01-14T10:22:54.222Z,4.80
2019-01-14T10:25:24.107Z,4.80
2019-01-14T10:27:53.350Z,4.80
2019-01-14T10:30:22.616Z,4.80
2019-01-14T10:32:52.079Z,4.80
2019-01-14T10:35:21.483Z,4.70
2019-01-14T10:37:50.579Z,4.80
2019-01-14T10:40:20.307Z,4.70
2019-01-14T10:42:49.414Z,4.70
2019-01-14T10:45:20.824Z,4.70
2019-01-14T10:47:50.117Z,4.70
2019-01-14T10:50:19.644Z,4.70
2019-01-14T10:52:49.051Z,4.70
2019-01-14T10:55:18.532Z,4.70
2019-01-14T10:57:47.874Z,4.60
2019-01-14T11:00:22.130Z,4.60
2019-01-14T11:02:52.058Z,4.60
2019-01-14T11:05:24.247Z,4.50
2019-01-14T11:07:53.406Z,4.50
2019-01-14T11:10:23.082Z,4.50
2019-01-14T11:12:52.304Z,4.40
2019-01-14T11:15:21.488Z,4.40
2019-01-14T11:17:50.766Z,4.40
2019-01-14T11:20:22.634Z,4.40
2019-01-14T11:22:51.915Z,4.30
2019-01-14T11:25:22.618Z,4.30
2019-01-14T11:27:52.003Z,4.20
2019-01-14T11:30:26.586Z,4.20
2019-01-14T11:32:55.950Z,4.10
2019-01-14T11:35:25.088Z,4.10
2019-01-14T11:37:54.498Z,4.10
2019-01-14T11:40:35.161Z,4.10
2019-01-14T11:43:04.596Z,4.10
2019-01-14T11:45:33.692Z,4.20
2019-01-14T11:48:02.834Z,4.20
2019-01-14T11:50:32.199Z,4.30
2019-01-14T11:53:01.919Z,4.30
2019-01-14T11:55:31.060Z,4.30
2019-01-14T11:58:00.442Z,4.30
2019-01-14T12:00:36.251Z,4.30
2019-01-14T12:03:01.191Z,4.40
2019-01-14T12:05:30.329Z,4.40
2019-01-14T12:07:59.526Z,4.40
2019-01-14T12:10:29.030Z,4.50
2019-01-14T12:12:58.239Z,4.50
2019-01-14T12:15:28.379Z,4.50
2019-01-14T12:17:57.577Z,4.50
2019-01-14T12:20:27.048Z,4.50
2019-01-14T12:22:56.151Z,4.40
2019-01-14T12:25:25.299Z,4.40
2019-01-14T12:27:54.671Z,4.40
2019-01-14T12:30:26.773Z,4.50
2019-01-14T12:32:56.483Z,4.50
2019-01-14T12:35:25.858Z,4.50
2019-01-14T12:37:55.315Z,4.40
2019-01-14T12:40:25.274Z,4.50
2019-01-14T12:42:54.652Z,4.40
2019-01-14T12:45:24.650Z,4.50
2019-01-14T12:47:54.047Z,4.50
2019-01-14T12:50:23.182Z,4.60
2019-01-14T12:52:52.607Z,4.60
2019-01-14T12:55:21.779Z,4.70
2019-01-14T12:57:51.189Z,4.70
2019-01-14T13:00:22.567Z,4.70
2019-01-14T13:02:51.839Z,4.70
2019-01-14T13:05:21.647Z,4.80
2019-01-14T13:07:51.090Z,4.80
2019-01-14T13:10:20.524Z,4.80
2019-01-14T13:12:49.630Z,5.00
2019-01-14T13:15:21.006Z,5.10
2019-01-14T13:17:50.184Z,5.10
2019-01-14T13:20:19.647Z,5.20
2019-01-14T13:22:48.754Z,5.10
2019-01-14T13:25:18.262Z,5.10
2019-01-14T13:27:47.466Z,5.10
2019-01-14T13:30:19.278Z,5.10
2019-01-14T13:32:48.650Z,5.00
2019-01-14T13:35:17.790Z,4.60
2019-01-14T13:37:47.066Z,4.00
2019-01-14T13:40:16.327Z,3.50
2019-01-14T13:42:45.955Z,3.00
2019-01-14T13:45:17.086Z,2.60
2019-01-14T13:47:46.306Z,2.40
2019-01-14T13:50:20.395Z,2.20
2019-01-14T13:52:49.775Z,1.90
2019-01-14T13:55:19.118Z,1.80
2019-01-14T13:57:48.535Z,1.70
2019-01-14T14:00:22.422Z,1.60
2019-01-14T14:02:52.383Z,1.50
2019-01-14T14:05:21.808Z,1.40
2019-01-14T14:07:50.926Z,1.40
2019-01-14T14:10:28.801Z,1.40
2019-01-14T14:12:58.378Z,1.40
2019-01-14T14:15:27.535Z,1.30
2019-01-14T14:17:56.839Z,1.30
2019-01-14T14:20:26.463Z,1.20
2019-01-14T14:22:55.850Z,1.10
2019-01-14T14:25:25.074Z,1.00
2019-01-14T14:27:54.183Z,1.00
2019-01-14T14:30:31.990Z,0.90
2019-01-14T14:33:01.891Z,0.90
2019-01-14T14:35:31.039Z,0.90
2019-01-14T14:38:01.444Z,0.90
2019-01-14T14:40:31.211Z,0.90
2019-01-14T14:43:00.660Z,0.90
2019-01-14T14:45:30.423Z,0.90
2019-01-14T14:47:59.586Z,0.90
2019-01-14T14:50:29.064Z,0.90
2019-01-14T14:52:58.731Z,0.90
2019-01-14T14:55:27.833Z,0.90
2019-01-14T14:57:57.084Z,0.90
2019-01-14T15:00:26.546Z,0.90
2019-01-14T15:02:56.029Z,0.90
2019-01-14T15:05:25.135Z,0.90
2019-01-14T15:07:54.274Z,0.90
2019-01-14T15:10:23.901Z,0.90
2019-01-14T15:12:53.305Z,0.90
2019-01-14T15:15:23.887Z,1.00
2019-01-14T15:17:53.566Z,1.00
2019-01-14T15:20:23.725Z,1.00
2019-01-14T15:22:53.167Z,1.00
2019-01-14T15:25:22.279Z,1.10
2019-01-14T15:27:51.418Z,1.00
2019-01-14T15:30:25.714Z,1.00
2019-01-14T15:32:55.125Z,1.00
2019-01-14T15:35:24.634Z,1.00
2019-01-14T15:37:54.331Z,1.00
2019-01-14T15:40:23.797Z,0.90
2019-01-14T15:42:53.874Z,1.00
2019-01-14T15:45:24.678Z,1.00
2019-01-14T15:47:53.948Z,0.90
2019-01-14T15:50:23.326Z,0.90
2019-01-14T15:53:04.567Z,0.90
2019-01-14T15:55:33.684Z,0.90
2019-01-14T15:58:03.208Z,0.90
2019-01-14T16:00:32.662Z,0.90
2019-01-14T16:03:02.666Z,0.80
2019-01-14T16:05:32.039Z,0.80
2019-01-14T16:08:01.554Z,0.80
2019-01-14T16:10:30.931Z,0.70
2019-01-14T16:13:00.183Z,0.70
2019-01-14T16:15:29.291Z,0.70
2019-01-14T16:17:58.862Z,0.70
2019-01-14T16:20:28.307Z,0.70
2019-01-14T16:22:57.507Z,0.70
2019-01-14T16:25:26.907Z,0.70
2019-01-14T16:27:56.103Z,0.80
2019-01-14T16:30:26.932Z,0.80
2019-01-14T16:32:56.507Z,0.70
2019-01-14T16:35:25.635Z,0.70
2019-01-14T16:37:54.851Z,0.80
2019-01-14T16:40:23.963Z,0.80
2019-01-14T16:42:53.431Z,0.80
2019-01-14T16:45:26.822Z,0.90
2019-01-14T16:47:56.340Z,0.90
2019-01-14T16:50:25.603Z,0.80
2019-01-14T16:52:55.523Z,0.90
2019-01-14T16:55:32.979Z,0.90
2019-01-14T16:58:02.582Z,0.90
2019-01-14T17:00:32.083Z,0.90
2019-01-14T17:03:01.282Z,0.90
2019-01-14T17:05:30.669Z,0.90
2019-01-14T17:08:00.139Z,0.80
2019-01-14T17:10:29.255Z,0.80
2019-01-14T17:12:58.950Z,0.80
2019-01-14T17:15:28.588Z,0.90
2019-01-14T17:17:58.040Z,0.90
2019-01-14T17:20:27.684Z,0.90
2019-01-14T17:22:56.860Z,0.90
2019-01-14T17:25:25.962Z,0.90
2019-01-14T17:27:55.226Z,0.90
2019-01-14T17:30:24.410Z,0.80
2019-01-14T17:32:53.915Z,0.90
2019-01-14T17:35:23.023Z,0.90
2019-01-14T17:37:52.463Z,0.90
2019-01-14T17:40:21.603Z,0.90
2019-01-14T17:42:51.318Z,0.90
2019-01-14T17:45:20.498Z,1.00
2019-01-14T17:47:49.678Z,1.00
2019-01-14T17:50:19.979Z,1.10
2019-01-14T17:52:49.523Z,1.10
2019-01-14T17:55:18.636Z,1.20
2019-01-14T17:57:48.166Z,1.20
2019-01-14T18:00:25.299Z,1.30
2019-01-14T18:02:54.734Z,1.30
2019-01-14T18:05:24.480Z,1.30
2019-01-14T18:07:53.582Z,1.40
2019-01-14T18:10:23.564Z,1.40
2019-01-14T18:12:52.934Z,1.40
2019-01-14T18:15:22.381Z,1.40
2019-01-14T18:17:54.508Z,1.30
2019-01-14T18:20:23.972Z,1.30
2019-01-14T18:22:53.355Z,1.30
2019-01-14T18:25:22.851Z,1.30
2019-01-14T18:27:52.227Z,1.30
2019-01-14T18:30:22.074Z,1.30
2019-01-14T18:32:51.453Z,1.30
2019-01-14T18:35:20.676Z,1.40
2019-01-14T18:37:50.046Z,1.40
2019-01-14T18:40:19.318Z,1.40
2019-01-14T18:42:48.560Z,1.50
2019-01-14T18:45:19.588Z,1.50
2019-01-14T18:47:49.374Z,1.50
2019-01-14T18:50:21.051Z,1.50
2019-01-14T18:52:50.189Z,1.50
2019-01-14T18:55:19.487Z,1.60
2019-01-14T18:57:49.212Z,1.50
2019-01-14T19:00:20.454Z,1.50
2019-01-14T19:02:49.674Z,1.50
2019-01-14T19:05:20.198Z,1.50
2019-01-14T19:07:49.583Z,1.50
2019-01-14T19:10:21.855Z,1.40
2019-01-14T19:12:51.278Z,1.40
2019-01-14T19:15:21.512Z,1.40
2019-01-14T19:17:51.703Z,1.40
2019-01-14T19:20:23.686Z,1.40
2019-01-14T19:22:52.883Z,1.40
2019-01-14T19:25:22.359Z,1.30
2019-01-14T19:27:51.780Z,1.30
2019-01-14T19:30:21.572Z,1.20
2019-01-14T19:32:51.024Z,1.20
2019-01-14T19:35:20.230Z,1.20
2019-01-14T19:37:49.879Z,1.20
2019-01-14T19:40:20.594Z,1.20
2019-01-14T19:42:50.366Z,1.20
2019-01-14T19:45:20.855Z,1.20
2019-01-14T19:47:49.963Z,1.20
2019-01-14T19:50:21.087Z,1.30
2019-01-14T19:52:50.295Z,1.20
2019-01-14T19:55:19.523Z,1.20
2019-01-14T19:57:48.878Z,1.10
2019-01-14T20:00:23.660Z,1.10
2019-01-14T20:02:52.866Z,1.10
2019-01-14T20:05:22.438Z,1.20
2019-01-14T20:07:52.113Z,1.20
2019-01-14T20:10:21.563Z,1.20
2019-01-14T20:12:50.870Z,1.20
2019-01-14T20:15:21.202Z,1.10
2019-01-14T20:17:50.298Z,1.10
2019-01-14T20:20:19.786Z,1.10
2019-01-14T20:22:49.553Z,1.20
2019-01-14T20:25:18.822Z,1.20
2019-01-14T20:27:48.308Z,1.20
2019-01-14T20:30:19.583Z,1.20
2019-01-14T20:32:48.675Z,1.10
2019-01-14T20:35:18.016Z,1.10
2019-01-14T20:37:47.131Z,1.10
2019-01-14T20:40:16.630Z,1.00
2019-01-14T20:42:45.855Z,1.10
2019-01-14T20:45:15.570Z,1.00
2019-01-14T20:47:45.058Z,1.00
2019-01-14T20:50:16.608Z,1.00
2019-01-14T20:52:45.720Z,1.00
2019-01-14T20:55:15.549Z,1.00
2019-01-14T20:57:44.770Z,0.90
2019-01-14T21:00:25.040Z,0.90
2019-01-14T21:02:54.518Z,0.90
2019-01-14T21:05:24.552Z,0.90
2019-01-14T21:07:54.031Z,0.90
2019-01-14T21:10:23.203Z,0.90
2019-01-14T21:12:52.582Z,0.90
2019-01-14T21:15:21.982Z,0.90
2019-01-14T21:17:51.178Z,0.90
2019-01-14T21:20:22.279Z,0.90
2019-01-14T21:22:51.716Z,0.90
2019-01-14T21:25:21.223Z,0.90
2019-01-14T21:27:50.907Z,0.90
2019-01-14T21:30:22.198Z,0.80
2019-01-14T21:32:51.447Z,0.80
2019-01-14T21:35:21.088Z,0.80
2019-01-14T21:37:51.534Z,0.80
2019-01-14T21:40:20.904Z,0.80
2019-01-14T21:42:50.043Z,0.80
2019-01-14T21:47:50.886Z,0.80
2019-01-14T21:50:32.047Z,0.80
2019-01-14T21:53:13.262Z,0.80
2019-01-14T21:55:53.936Z,0.80
2019-01-14T21:58:34.923Z,0.80
2019-01-14T22:01:15.723Z,0.80
2019-01-14T22:03:56.195Z,0.80
2019-01-14T22:06:37.227Z,0.80
2019-01-14T22:09:18.300Z,0.80
2019-01-14T22:11:59.279Z,0.90
2019-01-14T22:14:40.009Z,0.90
2019-01-14T22:17:20.848Z,1.00
2019-01-14T22:20:20.770Z,0.90
2019-01-14T22:23:01.367Z,1.00
2019-01-14T22:25:42.227Z,1.00
2019-01-14T22:28:23.183Z,1.00
2019-01-14T22:31:23.084Z,0.90
2019-01-14T22:34:02.915Z,0.90
2019-01-14T22:36:51.827Z,0.90
2019-01-14T22:39:40.031Z,0.90
2019-01-14T22:45:57.943Z,0.80
2019-01-14T22:48:46.903Z,0.80
2019-01-14T22:51:35.438Z,0.80
2019-01-14T22:54:23.946Z,0.80
2019-01-14T22:57:12.567Z,0.70
2019-01-14T23:00:01.395Z,0.70
2019-01-14T23:06:21.004Z,0.60
2019-01-14T23:09:09.621Z,0.50
2019-01-14T23:12:34.592Z,0.50
2019-01-14T23:15:22.799Z,0.40
2019-01-14T23:18:11.588Z,0.40
2019-01-14T23:20:59.802Z,0.20
2019-01-14T23:23:48.367Z,0.30
2019-01-14T23:26:36.934Z,0.30
2019-01-14T23:29:25.135Z,0.30
2019-01-14T23:32:32.975Z,0.30
2019-01-14T23:35:21.446Z,0.20
2019-01-14T23:38:09.991Z,0.20
2019-01-14T23:40:58.277Z,0.20
2019-01-14T23:43:46.599Z,0.20
2019-01-14T23:46:34.816Z,0.20
2019-01-14T23:49:23.051Z,0.20
2019-01-14T23:52:11.635Z,0.20
2019-01-14T23:54:59.875Z,0.30
